Time;durP1;ratioP1;P1;durP2;ratioP2;P2;SDS_P1;SDS_P2;PMS_P1;PMS_P2;Temp;Humidity;BMP_temperature;BMP_pressure;BME280_temperature;BME280_humidity;BME280_pressure;Samples;Min_cycle;Max_cycle;Signal;HPM_P1;HPM_P2
2022/09/21 05:59:30;;;;;;;3.58;2.60;;;;;;;;;;10548448;27;20489;-85
2022/09/21 06:05:08;;;;;;;5.18;3.20;;;;;;;;;;10540298;28;20109;-85
2022/09/21 06:10:35;;;;;;;4.78;2.90;;;;;;;;;;10617319;28;20113;-84
2022/09/21 06:15:37;;;;;;;6.53;3.50;;;;;;;;;;10620866;28;20062;-84
2022/09/21 06:20:38;;;;;;;5.13;3.20;;;;;;;;;;10612160;28;20503;-84
2022/09/21 06:25:48;;;;;;;;;;;;;;;;;;10611898;28;20023;-84
2022/09/21 06:30:53;;;;;;;3.57;2.77;;;;;;;;;;10611731;28;19903;-84
2022/09/21 06:35:55;;;;;;;4.55;2.85;;;;;;;;;;10628986;28;20145;-84
2022/09/21 06:41:09;;;;;;;5.15;3.08;;;;;;;;;;10608904;28;20096;-84
2022/09/21 06:46:46;;;;;;;5.38;3.80;;;;;;;;;;10608549;28;20031;-84
2022/09/21 06:51:48;;;;;;;5.75;3.35;;;;;;;;;;10610633;28;20027;-84
2022/09/21 06:56:49;;;;;;;4.47;3.40;;;;;;;;;;10625310;28;20062;-85
2022/09/21 07:01:51;;;;;;;3.67;2.90;;;;;;;;;;10632240;28;20023;-83
2022/09/21 07:06:52;;;;;;;5.72;3.20;;;;;;;;;;10632076;28;20035;-83
2022/09/21 07:11:59;;;;;;;5.15;3.20;;;;;;;;;;10602678;28;20039;-79
2022/09/21 07:17:01;;;;;;;7.43;3.70;;;;;;;;;;10603106;28;20030;-78
2022/09/21 07:22:02;;;;;;;8.93;3.75;;;;;;;;;;10591962;28;20087;-80
2022/09/21 07:27:03;;;;;;;7.55;4.15;;;;;;;;;;10622419;28;20020;-83
2022/09/21 07:32:04;;;;;;;6.97;4.60;;;;;;;;;;10614437;27;20036;-83
2022/09/21 07:37:05;;;;;;;7.13;4.55;;;;;;;;;;10585068;28;20027;-83
2022/09/21 07:42:07;;;;;;;4.50;3.33;;;;;;;;;;10603176;28;20027;-82
2022/09/21 07:47:20;;;;;;;5.93;3.55;;;;;;;;;;10584973;28;20062;-83
2022/09/21 07:52:21;;;;;;;5.70;3.63;;;;;;;;;;10588107;28;20023;-83
2022/09/21 08:02:42;;;;;;;5.82;4.00;;;;;;;;;;10598940;28;20023;-82
2022/09/21 08:07:43;;;;;;;8.15;5.32;;;;;;;;;;10580077;28;20038;-83
2022/09/21 08:12:45;;;;;;;7.60;5.22;;;;;;;;;;10605268;28;20095;-84
2022/09/21 08:17:47;;;;;;;5.22;3.58;;;;;;;;;;10586133;28;20027;-83
2022/09/21 08:22:48;;;;;;;6.75;3.50;;;;;;;;;;10588937;28;20023;-83
2022/09/21 08:27:49;;;;;;;5.47;2.72;;;;;;;;;;10588543;28;20024;-84
2022/09/21 08:32:53;;;;;;;8.50;3.60;;;;;;;;;;10612530;28;20026;-82
2022/09/21 08:37:54;;;;;;;7.15;3.22;;;;;;;;;;10587610;28;20023;-83
2022/09/21 08:42:55;;;;;;;6.30;3.13;;;;;;;;;;10590413;28;20051;-85
2022/09/21 08:47:57;;;;;;;9.85;3.08;;;;;;;;;;10586648;28;20030;-83
2022/09/21 08:53:07;;;;;;;9.60;4.07;;;;;;;;;;10593806;28;20472;-83
2022/09/21 08:58:21;;;;;;;10.33;3.63;;;;;;;;;;10593227;28;20496;-83
2022/09/21 09:03:34;;;;;;;8.75;2.40;;;;;;;;;;10604920;28;20024;-82
2022/09/21 09:08:45;;;;;;;4.40;2.13;;;;;;;;;;10584054;28;20031;-82
2022/09/21 09:13:58;;;;;;;4.57;2.17;;;;;;;;;;10603729;28;20088;-84
2022/09/21 09:19:03;;;;;;;5.43;3.15;;;;;;;;;;10587779;28;20062;-84
2022/09/21 09:24:05;;;;;;;6.60;2.70;;;;;;;;;;10598238;28;20420;-82
2022/09/21 09:29:24;;;;;;;6.60;1.70;;;;;;;;;;10576694;28;20392;-84
2022/09/21 09:34:28;;;;;;;3.30;1.80;;;;;;;;;;10568745;28;20028;-83
2022/09/21 09:39:30;;;;;;;4.03;2.10;;;;;;;;;;10572530;28;20424;-83
2022/09/21 09:44:49;;;;;;;5.65;2.38;;;;;;;;;;10598611;28;20056;-82
2022/09/21 09:50:00;;;;;;;3.85;2.20;;;;;;;;;;10592712;28;20075;-83
2022/09/21 09:55:01;;;;;;;;;;;;;;;;;;10575116;28;20031;-83
2022/09/21 10:00:07;;;;;;;4.40;2.30;;;;;;;;;;10579794;28;19903;-84
2022/09/21 10:05:18;;;;;;;5.63;2.35;;;;;;;;;;10582291;28;20053;-82
2022/09/21 10:10:31;;;;;;;4.35;2.15;;;;;;;;;;10586176;28;20032;-80
2022/09/21 10:15:33;;;;;;;5.65;1.98;;;;;;;;;;10580237;28;20024;-83
2022/09/21 10:20:34;;;;;;;5.50;2.40;;;;;;;;;;10576546;28;20030;-82
2022/09/21 10:25:35;;;;;;;2.85;1.38;;;;;;;;;;10598622;28;20031;-82
2022/09/21 10:30:37;;;;;;;5.13;1.90;;;;;;;;;;10580303;28;20385;-82
2022/09/21 10:35:48;;;;;;;3.45;1.95;;;;;;;;;;10599434;28;20027;-81
2022/09/21 10:40:49;;;;;;;3.42;1.75;;;;;;;;;;10577760;28;20073;-83
2022/09/21 10:45:52;;;;;;;5.78;2.05;;;;;;;;;;10588657;28;20039;-83
2022/09/21 10:50:55;;;;;;;4.32;2.00;;;;;;;;;;10585456;28;20030;-82
2022/09/21 10:56:02;;;;;;;4.68;2.17;;;;;;;;;;10585557;28;20039;-81
2022/09/21 11:01:20;;;;;;;5.47;1.80;;;;;;;;;;10605417;28;20111;-84
2022/09/21 11:06:23;;;;;;;2.90;1.70;;;;;;;;;;10585569;28;20024;-81
2022/09/21 11:11:46;;;;;;;5.97;2.17;;;;;;;;;;10601694;22;20051;-82
2022/09/21 11:17:02;;;;;;;3.67;1.80;;;;;;;;;;10548149;28;20066;-83
2022/09/21 11:22:42;;;;;;;3.72;1.63;;;;;;;;;;10544135;28;20028;-84
2022/09/21 11:28:13;;;;;;;3.53;2.10;;;;;;;;;;10562027;28;20054;-84
2022/09/21 11:33:17;;;;;;;;;;;;;;;;;;10491040;28;20047;-84
2022/09/21 11:38:34;;;;;;;3.47;1.73;;;;;;;;;;10562285;28;19908;-83
2022/09/21 11:43:36;;;;;;;2.63;1.20;;;;;;;;;;10542264;28;20044;-82
2022/09/21 11:48:44;;;;;;;3.95;1.60;;;;;;;;;;10543578;28;20055;-83
2022/09/21 11:54:04;;;;;;;3.17;1.70;;;;;;;;;;10541519;28;20024;-83
2022/09/21 11:59:28;;;;;;;2.60;1.17;;;;;;;;;;10546914;28;20024;-84
2022/09/21 12:04:48;;;;;;;3.40;1.88;;;;;;;;;;10549302;28;20113;-83
2022/09/21 12:09:55;;;;;;;3.83;1.35;;;;;;;;;;10550177;28;20444;-84
2022/09/21 12:15:31;;;;;;;3.78;1.40;;;;;;;;;;10555584;28;20043;-83
2022/09/21 12:20:51;;;;;;;4.28;1.75;;;;;;;;;;10554731;28;20015;-83
2022/09/21 12:25:55;;;;;;;2.73;1.40;;;;;;;;;;10573682;28;20043;-83
2022/09/21 12:31:04;;;;;;;2.67;1.50;;;;;;;;;;10569638;28;20282;-83
2022/09/21 12:36:10;;;;;;;3.65;1.88;;;;;;;;;;10566345;28;20036;-83
2022/09/21 12:41:18;;;;;;;5.90;3.13;;;;;;;;;;10569672;28;20052;-84
2022/09/21 12:46:29;;;;;;;2.95;1.10;;;;;;;;;;10547138;28;20062;-83
2022/09/21 12:51:34;;;;;;;2.58;1.80;;;;;;;;;;10544034;28;20123;-83
2022/09/21 12:56:58;;;;;;;5.30;4.75;;;;;;;;;;10569987;28;20020;-82
2022/09/21 13:01:59;;;;;;;4.70;1.52;;;;;;;;;;10569009;28;20087;-83
2022/09/21 13:07:32;;;;;;;4.38;1.17;;;;;;;;;;10569477;28;20004;-83
2022/09/21 13:12:39;;;;;;;3.38;1.58;;;;;;;;;;10567526;28;20032;-81
2022/09/21 13:17:40;;;;;;;4.65;0.85;;;;;;;;;;10569896;28;20031;-83
2022/09/21 13:22:42;;;;;;;2.53;1.02;;;;;;;;;;10558810;28;20416;-83
2022/09/21 13:28:03;;;;;;;4.75;2.10;;;;;;;;;;10545035;28;20074;-84
2022/09/21 13:33:24;;;;;;;5.05;1.65;;;;;;;;;;10548023;28;20039;-84
2022/09/21 13:38:26;;;;;;;2.88;1.30;;;;;;;;;;10548595;28;20039;-83
2022/09/21 13:44:00;;;;;;;2.38;0.82;;;;;;;;;;10544552;28;20541;-83
2022/09/21 13:49:10;;;;;;;3.55;1.10;;;;;;;;;;10509131;28;20032;-83
2022/09/21 13:54:13;;;;;;;4.90;1.05;;;;;;;;;;10515966;28;20025;-84
2022/09/21 13:59:21;;;;;;;2.80;1.02;;;;;;;;;;10502428;28;20025;-83
2022/09/21 14:04:25;;;;;;;3.08;1.95;;;;;;;;;;10500720;28;20036;-83
2022/09/21 14:09:28;;;;;;;2.47;1.25;;;;;;;;;;10498169;28;20131;-83
2022/09/21 14:14:40;;;;;;;3.63;1.10;;;;;;;;;;10496856;28;20037;-82
2022/09/21 14:19:41;;;;;;;8.77;6.32;;;;;;;;;;10505102;28;20112;-84
2022/09/21 14:24:43;;;;;;;3.80;1.40;;;;;;;;;;10507261;28;20434;-83
2022/09/21 14:29:51;;;;;;;3.65;1.33;;;;;;;;;;10506176;28;20016;-85
2022/09/21 14:35:10;;;;;;;3.15;1.02;;;;;;;;;;10504793;28;20037;-83
2022/09/21 14:40:18;;;;;;;5.75;1.40;;;;;;;;;;10510109;28;20017;-83
2022/09/21 14:45:29;;;;;;;2.50;1.20;;;;;;;;;;10512702;28;20035;-83
2022/09/21 14:50:33;;;;;;;3.80;1.10;;;;;;;;;;10533530;28;20024;-83
2022/09/21 14:55:54;;;;;;;4.85;1.42;;;;;;;;;;10515242;28;20040;-85
2022/09/21 15:00:57;;;;;;;7.32;1.60;;;;;;;;;;10513850;28;20013;-85
2022/09/21 15:11:40;;;;;;;4.18;1.58;;;;;;;;;;10537971;28;20017;-81
2022/09/21 15:16:47;;;;;;;6.07;1.60;;;;;;;;;;10520002;28;20485;-82
2022/09/21 15:21:50;;;;;;;3.13;1.50;;;;;;;;;;10515562;28;20032;-84
2022/09/21 15:27:01;;;;;;;5.68;1.67;;;;;;;;;;10511507;28;20045;-83
2022/09/21 15:32:03;;;;;;;2.58;1.40;;;;;;;;;;10516131;28;20032;-84
2022/09/21 15:37:11;;;;;;;3.53;1.40;;;;;;;;;;10511746;28;20103;-83
2022/09/21 15:42:18;;;;;;;3.90;1.60;;;;;;;;;;10506964;28;20056;-83
2022/09/21 15:47:21;;;;;;;7.55;2.15;;;;;;;;;;10509200;28;20025;-84
2022/09/21 15:52:35;;;;;;;5.82;1.98;;;;;;;;;;10510904;28;20021;-85
2022/09/21 15:57:39;;;;;;;3.00;1.77;;;;;;;;;;10513746;28;20485;-84
2022/09/21 16:02:41;;;;;;;6.18;1.65;;;;;;;;;;10530444;28;20028;-84
2022/09/21 16:07:42;;;;;;;6.72;1.70;;;;;;;;;;10510557;28;20193;-84
2022/09/21 16:12:44;;;;;;;4.03;1.40;;;;;;;;;;10512857;28;20047;-84
2022/09/21 16:17:57;;;;;;;3.67;1.38;;;;;;;;;;10515466;28;20024;-84
2022/09/21 16:23:05;;;;;;;3.85;1.60;;;;;;;;;;10511758;28;20083;-85
2022/09/21 16:28:28;;;;;;;3.33;1.40;;;;;;;;;;10510645;28;20063;-82
2022/09/21 16:33:36;;;;;;;4.13;1.50;;;;;;;;;;10510344;28;20119;-80
2022/09/21 16:38:38;;;;;;;3.08;1.33;;;;;;;;;;10506861;28;20031;-83
2022/09/21 16:43:42;;;;;;;2.95;1.20;;;;;;;;;;10507656;28;20084;-83
2022/09/21 16:48:43;;;;;;;2.30;1.30;;;;;;;;;;10509031;28;20032;-83
2022/09/21 16:53:44;;;;;;;2.38;1.40;;;;;;;;;;10507530;28;20031;-83
2022/09/21 16:58:46;;;;;;;3.38;1.30;;;;;;;;;;10507004;28;20024;-84
2022/09/21 17:03:47;;;;;;;2.72;1.35;;;;;;;;;;10504196;28;20028;-82
2022/09/21 17:08:48;;;;;;;4.55;1.63;;;;;;;;;;10502977;28;20052;-83
